sensor_id;sensor_type;location;lat;lon;timestamp;temperature;humidity
67192;HTU21D;54120;53.504;49.426;2022-11-20T00:01:45;-0.80;110.10
67192;HTU21D;54120;53.504;49.426;2022-11-20T00:04:11;-0.81;110.08
67192;HTU21D;54120;53.504;49.426;2022-11-20T00:06:37;-0.81;109.91
67192;HTU21D;54120;53.504;49.426;2022-11-20T00:09:03;-0.81;109.89
67192;HTU21D;54120;53.504;49.426;2022-11-20T00:11:31;-0.82;109.88
67192;HTU21D;54120;53.504;49.426;2022-11-20T00:13:57;-0.83;109.88
67192;HTU21D;54120;53.504;49.426;2022-11-20T00:16:24;-0.85;109.86
67192;HTU21D;54120;53.504;49.426;2022-11-20T00:18:50;-0.84;109.84
67192;HTU21D;54120;53.504;49.426;2022-11-20T00:21:18;-0.85;109.82
67192;HTU21D;54120;53.504;49.426;2022-11-20T00:23:44;-0.81;109.83
67192;HTU21D;54120;53.504;49.426;2022-11-20T00:26:11;-0.85;109.80
67192;HTU21D;54120;53.504;49.426;2022-11-20T00:28:37;-0.84;109.80
67192;HTU21D;54120;53.504;49.426;2022-11-20T00:31:07;-0.84;109.77
67192;HTU21D;54120;53.504;49.426;2022-11-20T00:33:34;-0.86;109.74
67192;HTU21D;54120;53.504;49.426;2022-11-20T00:36:03;-0.87;109.72
67192;HTU21D;54120;53.504;49.426;2022-11-20T00:38:30;-0.88;109.72
67192;HTU21D;54120;53.504;49.426;2022-11-20T00:41:00;-0.87;109.72
67192;HTU21D;54120;53.504;49.426;2022-11-20T00:43:26;-0.82;109.71
67192;HTU21D;54120;53.504;49.426;2022-11-20T00:45:56;-0.81;109.73
67192;HTU21D;54120;53.504;49.426;2022-11-20T00:48:22;-0.80;109.74
67192;HTU21D;54120;53.504;49.426;2022-11-20T00:50:47;-0.83;109.72
67192;HTU21D;54120;53.504;49.426;2022-11-20T00:53:13;-0.82;109.73
67192;HTU21D;54120;53.504;49.426;2022-11-20T00:55:39;-0.83;109.72
67192;HTU21D;54120;53.504;49.426;2022-11-20T00:58:05;-0.83;109.71
67192;HTU21D;54120;53.504;49.426;2022-11-20T01:00:31;-0.84;109.69
67192;HTU21D;54120;53.504;49.426;2022-11-20T01:02:57;-0.82;109.69
67192;HTU21D;54120;53.504;49.426;2022-11-20T01:05:22;-0.86;109.67
67192;HTU21D;54120;53.504;49.426;2022-11-20T01:07:48;-0.87;109.65
67192;HTU21D;54120;53.504;49.426;2022-11-20T01:10:14;-0.87;109.65
67192;HTU21D;54120;53.504;49.426;2022-11-20T01:12:40;-0.85;109.65
67192;HTU21D;54120;53.504;49.426;2022-11-20T01:15:06;-0.87;109.63
67192;HTU21D;54120;53.504;49.426;2022-11-20T01:17:32;-0.86;109.64
67192;HTU21D;54120;53.504;49.426;2022-11-20T01:19:57;-0.89;109.60
67192;HTU21D;54120;53.504;49.426;2022-11-20T01:22:23;-0.87;109.59
67192;HTU21D;54120;53.504;49.426;2022-11-20T01:24:49;-0.87;109.59
67192;HTU21D;54120;53.504;49.426;2022-11-20T01:27:15;-0.89;109.56
67192;HTU21D;54120;53.504;49.426;2022-11-20T01:29:41;-0.91;109.53
67192;HTU21D;54120;53.504;49.426;2022-11-20T01:32:07;-0.91;109.50
67192;HTU21D;54120;53.504;49.426;2022-11-20T01:34:32;-0.93;109.44
67192;HTU21D;54120;53.504;49.426;2022-11-20T01:36:58;-0.93;109.43
67192;HTU21D;54120;53.504;49.426;2022-11-20T01:39:25;-0.91;109.43
67192;HTU21D;54120;53.504;49.426;2022-11-20T01:41:52;-0.90;109.43
67192;HTU21D;54120;53.504;49.426;2022-11-20T01:44:55;-0.88;109.39
67192;HTU21D;54120;53.504;49.426;2022-11-20T01:47:22;-0.90;109.39
67192;HTU21D;54120;53.504;49.426;2022-11-20T01:49:54;-0.89;109.37
67192;HTU21D;54120;53.504;49.426;2022-11-20T01:52:23;-0.90;109.37
67192;HTU21D;54120;53.504;49.426;2022-11-20T01:54:52;-0.89;109.32
67192;HTU21D;54120;53.504;49.426;2022-11-20T01:57:18;-0.90;109.26
67192;HTU21D;54120;53.504;49.426;2022-11-20T01:59:47;-0.87;109.30
67192;HTU21D;54120;53.504;49.426;2022-11-20T02:02:14;-0.87;109.29
67192;HTU21D;54120;53.504;49.426;2022-11-20T02:04:40;-0.87;109.29
67192;HTU21D;54120;53.504;49.426;2022-11-20T02:07:06;-0.87;109.30
67192;HTU21D;54120;53.504;49.426;2022-11-20T02:09:32;-0.88;109.30
67192;HTU21D;54120;53.504;49.426;2022-11-20T02:11:58;-0.86;109.30
67192;HTU21D;54120;53.504;49.426;2022-11-20T02:14:24;-0.85;109.31
67192;HTU21D;54120;53.504;49.426;2022-11-20T02:16:50;-0.85;109.33
67192;HTU21D;54120;53.504;49.426;2022-11-20T02:19:26;-0.85;109.32
67192;HTU21D;54120;53.504;49.426;2022-11-20T02:22:00;-0.87;109.28
67192;HTU21D;54120;53.504;49.426;2022-11-20T02:24:27;-0.88;109.27
67192;HTU21D;54120;53.504;49.426;2022-11-20T02:26:54;-0.87;109.26
67192;HTU21D;54120;53.504;49.426;2022-11-20T02:29:23;-0.85;109.29
67192;HTU21D;54120;53.504;49.426;2022-11-20T02:31:50;-0.83;109.33
67192;HTU21D;54120;53.504;49.426;2022-11-20T02:34:17;-0.83;109.31
67192;HTU21D;54120;53.504;49.426;2022-11-20T02:36:42;-0.82;109.33
67192;HTU21D;54120;53.504;49.426;2022-11-20T02:39:09;-0.83;109.31
67192;HTU21D;54120;53.504;49.426;2022-11-20T02:41:37;-0.84;109.31
67192;HTU21D;54120;53.504;49.426;2022-11-20T02:44:04;-0.84;109.30
67192;HTU21D;54120;53.504;49.426;2022-11-20T02:46:30;-0.84;109.29
67192;HTU21D;54120;53.504;49.426;2022-11-20T02:48:56;-0.84;109.26
67192;HTU21D;54120;53.504;49.426;2022-11-20T02:51:21;-0.87;109.22
67192;HTU21D;54120;53.504;49.426;2022-11-20T02:53:47;-0.87;109.23
67192;HTU21D;54120;53.504;49.426;2022-11-20T02:56:13;-0.88;109.21
67192;HTU21D;54120;53.504;49.426;2022-11-20T02:58:39;-0.89;109.20
67192;HTU21D;54120;53.504;49.426;2022-11-20T03:01:05;-0.89;109.19
67192;HTU21D;54120;53.504;49.426;2022-11-20T03:03:30;-0.89;109.16
67192;HTU21D;54120;53.504;49.426;2022-11-20T03:05:58;-0.89;109.16
67192;HTU21D;54120;53.504;49.426;2022-11-20T03:08:24;-0.90;109.14
67192;HTU21D;54120;53.504;49.426;2022-11-20T03:10:50;-0.90;109.14
67192;HTU21D;54120;53.504;49.426;2022-11-20T03:13:15;-0.90;109.07
67192;HTU21D;54120;53.504;49.426;2022-11-20T03:15:41;-0.93;109.00
67192;HTU21D;54120;53.504;49.426;2022-11-20T03:18:07;-0.95;108.91
67192;HTU21D;54120;53.504;49.426;2022-11-20T03:20:33;-0.95;108.88
67192;HTU21D;54120;53.504;49.426;2022-11-20T03:22:59;-0.96;108.85
67192;HTU21D;54120;53.504;49.426;2022-11-20T03:25:25;-0.95;108.83
67192;HTU21D;54120;53.504;49.426;2022-11-20T03:27:51;-0.96;108.84
67192;HTU21D;54120;53.504;49.426;2022-11-20T03:30:17;-0.96;108.85
67192;HTU21D;54120;53.504;49.426;2022-11-20T03:32:43;-0.96;108.84
67192;HTU21D;54120;53.504;49.426;2022-11-20T03:35:09;-0.94;108.87
67192;HTU21D;54120;53.504;49.426;2022-11-20T03:37:35;-0.93;108.90
67192;HTU21D;54120;53.504;49.426;2022-11-20T03:40:01;-0.90;108.92
67192;HTU21D;54120;53.504;49.426;2022-11-20T03:42:26;-0.90;108.90
67192;HTU21D;54120;53.504;49.426;2022-11-20T03:45:10;-0.89;108.88
67192;HTU21D;54120;53.504;49.426;2022-11-20T03:47:36;-0.87;108.91
67192;HTU21D;54120;53.504;49.426;2022-11-20T03:50:02;-0.85;108.88
67192;HTU21D;54120;53.504;49.426;2022-11-20T03:52:28;-0.85;108.91
67192;HTU21D;54120;53.504;49.426;2022-11-20T03:54:54;-0.83;108.93
67192;HTU21D;54120;53.504;49.426;2022-11-20T03:57:20;-0.83;108.94
67192;HTU21D;54120;53.504;49.426;2022-11-20T03:59:46;-0.81;108.97
67192;HTU21D;54120;53.504;49.426;2022-11-20T04:02:12;-0.79;109.00
67192;HTU21D;54120;53.504;49.426;2022-11-20T04:04:37;-0.77;109.05
67192;HTU21D;54120;53.504;49.426;2022-11-20T04:07:03;-0.76;109.07
67192;HTU21D;54120;53.504;49.426;2022-11-20T04:09:29;-0.75;109.07
67192;HTU21D;54120;53.504;49.426;2022-11-20T04:11:55;-0.73;109.09
67192;HTU21D;54120;53.504;49.426;2022-11-20T04:14:21;-0.72;109.09
67192;HTU21D;54120;53.504;49.426;2022-11-20T04:16:46;-0.73;109.11
67192;HTU21D;54120;53.504;49.426;2022-11-20T04:19:14;-0.71;109.13
67192;HTU21D;54120;53.504;49.426;2022-11-20T04:21:40;-0.72;109.13
67192;HTU21D;54120;53.504;49.426;2022-11-20T04:24:06;-0.70;109.14
67192;HTU21D;54120;53.504;49.426;2022-11-20T04:26:32;-0.68;109.17
67192;HTU21D;54120;53.504;49.426;2022-11-20T04:28:58;-0.67;109.17
67192;HTU21D;54120;53.504;49.426;2022-11-20T04:31:28;-0.65;109.19
67192;HTU21D;54120;53.504;49.426;2022-11-20T04:33:55;-0.62;109.20
67192;HTU21D;54120;53.504;49.426;2022-11-20T04:36:22;-0.60;109.22
67192;HTU21D;54120;53.504;49.426;2022-11-20T04:38:51;-0.62;109.21
67192;HTU21D;54120;53.504;49.426;2022-11-20T04:41:18;-0.60;109.26
67192;HTU21D;54120;53.504;49.426;2022-11-20T04:43:48;-0.57;109.29
67192;HTU21D;54120;53.504;49.426;2022-11-20T04:46:14;-0.56;109.33
67192;HTU21D;54120;53.504;49.426;2022-11-20T04:48:40;-0.56;109.36
67192;HTU21D;54120;53.504;49.426;2022-11-20T04:51:06;-0.55;109.37
67192;HTU21D;54120;53.504;49.426;2022-11-20T04:53:32;-0.53;109.36
67192;HTU21D;54120;53.504;49.426;2022-11-20T04:56:07;-0.53;109.38
67192;HTU21D;54120;53.504;49.426;2022-11-20T04:58:33;-0.51;109.40
67192;HTU21D;54120;53.504;49.426;2022-11-20T05:01:02;-0.52;109.39
67192;HTU21D;54120;53.504;49.426;2022-11-20T05:03:28;-0.50;109.39
67192;HTU21D;54120;53.504;49.426;2022-11-20T05:05:54;-0.47;109.44
67192;HTU21D;54120;53.504;49.426;2022-11-20T05:08:20;-0.46;109.46
67192;HTU21D;54120;53.504;49.426;2022-11-20T05:10:46;-0.46;109.47
67192;HTU21D;54120;53.504;49.426;2022-11-20T05:13:12;-0.41;109.51
67192;HTU21D;54120;53.504;49.426;2022-11-20T05:15:38;-0.38;109.56
67192;HTU21D;54120;53.504;49.426;2022-11-20T05:18:03;-0.37;109.60
67192;HTU21D;54120;53.504;49.426;2022-11-20T05:20:29;-0.35;109.63
67192;HTU21D;54120;53.504;49.426;2022-11-20T05:22:58;-0.34;109.67
67192;HTU21D;54120;53.504;49.426;2022-11-20T05:25:24;-0.31;109.70
67192;HTU21D;54120;53.504;49.426;2022-11-20T05:27:50;-0.31;109.72
67192;HTU21D;54120;53.504;49.426;2022-11-20T05:30:16;-0.31;109.70
67192;HTU21D;54120;53.504;49.426;2022-11-20T05:32:42;-0.30;109.72
67192;HTU21D;54120;53.504;49.426;2022-11-20T05:35:08;-0.30;109.75
67192;HTU21D;54120;53.504;49.426;2022-11-20T05:37:34;-0.28;109.76
67192;HTU21D;54120;53.504;49.426;2022-11-20T05:39:59;-0.27;109.80
67192;HTU21D;54120;53.504;49.426;2022-11-20T05:42:25;-0.23;109.89
67192;HTU21D;54120;53.504;49.426;2022-11-20T05:45:01;-0.19;109.95
67192;HTU21D;54120;53.504;49.426;2022-11-20T05:47:28;-0.17;109.98
67192;HTU21D;54120;53.504;49.426;2022-11-20T05:49:54;-0.16;110.01
67192;HTU21D;54120;53.504;49.426;2022-11-20T05:52:20;-0.14;110.03
67192;HTU21D;54120;53.504;49.426;2022-11-20T05:54:46;-0.12;110.06
67192;HTU21D;54120;53.504;49.426;2022-11-20T05:57:11;-0.09;110.12
67192;HTU21D;54120;53.504;49.426;2022-11-20T05:59:37;-0.08;110.14
67192;HTU21D;54120;53.504;49.426;2022-11-20T06:02:03;-0.06;110.20
67192;HTU21D;54120;53.504;49.426;2022-11-20T06:04:29;-0.07;110.19
67192;HTU21D;54120;53.504;49.426;2022-11-20T06:06:55;-0.06;110.18
67192;HTU21D;54120;53.504;49.426;2022-11-20T06:09:21;-0.07;110.16
67192;HTU21D;54120;53.504;49.426;2022-11-20T06:11:47;-0.06;110.17
67192;HTU21D;54120;53.504;49.426;2022-11-20T06:14:12;-0.06;110.13
67192;HTU21D;54120;53.504;49.426;2022-11-20T06:16:38;-0.05;110.18
67192;HTU21D;54120;53.504;49.426;2022-11-20T06:19:04;-0.02;110.18
67192;HTU21D;54120;53.504;49.426;2022-11-20T06:21:30;-0.03;110.17
67192;HTU21D;54120;53.504;49.426;2022-11-20T06:23:56;-0.05;110.18
67192;HTU21D;54120;53.504;49.426;2022-11-20T06:26:25;-0.05;110.22
67192;HTU21D;54120;53.504;49.426;2022-11-20T06:28:51;-0.00;110.24
67192;HTU21D;54120;53.504;49.426;2022-11-20T06:31:19;0.01;110.29
67192;HTU21D;54120;53.504;49.426;2022-11-20T06:33:44;-0.00;110.26
67192;HTU21D;54120;53.504;49.426;2022-11-20T06:36:11;0.04;110.26
67192;HTU21D;54120;53.504;49.426;2022-11-20T06:38:38;0.05;110.26
67192;HTU21D;54120;53.504;49.426;2022-11-20T06:41:08;0.06;110.32
67192;HTU21D;54120;53.504;49.426;2022-11-20T06:43:35;0.07;110.39
67192;HTU21D;54120;53.504;49.426;2022-11-20T06:46:01;0.10;110.46
67192;HTU21D;54120;53.504;49.426;2022-11-20T06:48:28;0.12;110.51
67192;HTU21D;54120;53.504;49.426;2022-11-20T06:50:54;0.10;110.58
67192;HTU21D;54120;53.504;49.426;2022-11-20T06:53:20;0.13;110.65
67192;HTU21D;54120;53.504;49.426;2022-11-20T06:55:46;0.14;110.71
67192;HTU21D;54120;53.504;49.426;2022-11-20T06:58:13;0.14;110.79
67192;HTU21D;54120;53.504;49.426;2022-11-20T07:00:39;0.15;110.83
67192;HTU21D;54120;53.504;49.426;2022-11-20T07:03:06;0.15;110.91
67192;HTU21D;54120;53.504;49.426;2022-11-20T07:05:32;0.15;110.97
67192;HTU21D;54120;53.504;49.426;2022-11-20T07:07:58;0.16;111.03
67192;HTU21D;54120;53.504;49.426;2022-11-20T07:10:24;0.16;111.03
67192;HTU21D;54120;53.504;49.426;2022-11-20T07:12:51;0.17;111.08
67192;HTU21D;54120;53.504;49.426;2022-11-20T07:15:17;0.17;111.13
67192;HTU21D;54120;53.504;49.426;2022-11-20T07:17:43;0.19;111.15
67192;HTU21D;54120;53.504;49.426;2022-11-20T07:20:09;0.18;111.18
67192;HTU21D;54120;53.504;49.426;2022-11-20T07:22:35;0.20;111.25
67192;HTU21D;54120;53.504;49.426;2022-11-20T07:25:00;0.23;111.33
67192;HTU21D;54120;53.504;49.426;2022-11-20T07:27:27;0.25;111.35
67192;HTU21D;54120;53.504;49.426;2022-11-20T07:29:53;0.25;111.38
67192;HTU21D;54120;53.504;49.426;2022-11-20T07:32:19;0.31;111.39
67192;HTU21D;54120;53.504;49.426;2022-11-20T07:34:45;0.33;111.42
67192;HTU21D;54120;53.504;49.426;2022-11-20T07:37:12;0.37;111.46
67192;HTU21D;54120;53.504;49.426;2022-11-20T07:39:37;0.43;111.50
67192;HTU21D;54120;53.504;49.426;2022-11-20T07:42:03;0.43;111.51
67192;HTU21D;54120;53.504;49.426;2022-11-20T07:44:29;0.47;111.55
67192;HTU21D;54120;53.504;49.426;2022-11-20T07:46:55;0.52;111.61
67192;HTU21D;54120;53.504;49.426;2022-11-20T07:49:21;0.54;111.69
67192;HTU21D;54120;53.504;49.426;2022-11-20T07:51:47;0.61;111.74
67192;HTU21D;54120;53.504;49.426;2022-11-20T07:54:15;0.63;111.76
67192;HTU21D;54120;53.504;49.426;2022-11-20T07:56:41;0.62;111.81
67192;HTU21D;54120;53.504;49.426;2022-11-20T07:59:07;0.64;111.87
67192;HTU21D;54120;53.504;49.426;2022-11-20T08:01:33;0.69;111.97
67192;HTU21D;54120;53.504;49.426;2022-11-20T08:03:59;0.71;112.00
67192;HTU21D;54120;53.504;49.426;2022-11-20T08:06:24;0.73;112.03
67192;HTU21D;54120;53.504;49.426;2022-11-20T08:08:50;0.76;112.06
67192;HTU21D;54120;53.504;49.426;2022-11-20T08:11:16;0.78;112.14
67192;HTU21D;54120;53.504;49.426;2022-11-20T08:14:01;0.87;112.19
67192;HTU21D;54120;53.504;49.426;2022-11-20T08:19:05;0.99;112.32
67192;HTU21D;54120;53.504;49.426;2022-11-20T08:21:31;1.02;112.37
67192;HTU21D;54120;53.504;49.426;2022-11-20T08:23:57;1.02;112.40
67192;HTU21D;54120;53.504;49.426;2022-11-20T08:26:23;1.40;112.67
67192;HTU21D;54120;53.504;49.426;2022-11-20T08:28:52;1.62;112.74
67192;HTU21D;54120;53.504;49.426;2022-11-20T08:31:19;1.61;112.72
67192;HTU21D;54120;53.504;49.426;2022-11-20T08:33:46;1.63;112.72
67192;HTU21D;54120;53.504;49.426;2022-11-20T08:36:11;1.66;112.71
67192;HTU21D;54120;53.504;49.426;2022-11-20T08:38:38;1.68;112.74
67192;HTU21D;54120;53.504;49.426;2022-11-20T08:41:04;1.65;112.65
67192;HTU21D;54120;53.504;49.426;2022-11-20T08:43:58;1.57;112.64
67192;HTU21D;54120;53.504;49.426;2022-11-20T08:46:25;1.47;112.58
67192;HTU21D;54120;53.504;49.426;2022-11-20T08:48:51;1.41;112.46
67192;HTU21D;54120;53.504;49.426;2022-11-20T08:51:17;1.40;112.45
67192;HTU21D;54120;53.504;49.426;2022-11-20T08:53:43;1.37;112.32
67192;HTU21D;54120;53.504;49.426;2022-11-20T08:56:09;1.26;112.13
67192;HTU21D;54120;53.504;49.426;2022-11-20T08:58:35;1.23;111.99
67192;HTU21D;54120;53.504;49.426;2022-11-20T09:01:01;1.19;111.86
67192;HTU21D;54120;53.504;49.426;2022-11-20T09:03:27;1.23;111.84
67192;HTU21D;54120;53.504;49.426;2022-11-20T09:05:56;1.17;111.47
67192;HTU21D;54120;53.504;49.426;2022-11-20T09:08:22;1.11;111.32
67192;HTU21D;54120;53.504;49.426;2022-11-20T09:10:51;1.01;110.87
67192;HTU21D;54120;53.504;49.426;2022-11-20T09:13:17;0.98;110.78
67192;HTU21D;54120;53.504;49.426;2022-11-20T09:15:42;1.02;110.78
67192;HTU21D;54120;53.504;49.426;2022-11-20T09:18:08;1.06;110.79
67192;HTU21D;54120;53.504;49.426;2022-11-20T09:20:34;1.05;110.81
67192;HTU21D;54120;53.504;49.426;2022-11-20T09:23:00;1.09;110.81
67192;HTU21D;54120;53.504;49.426;2022-11-20T09:25:26;1.16;110.87
67192;HTU21D;54120;53.504;49.426;2022-11-20T09:27:55;1.12;110.85
67192;HTU21D;54120;53.504;49.426;2022-11-20T09:30:21;1.08;110.87
67192;HTU21D;54120;53.504;49.426;2022-11-20T09:32:47;1.05;110.84
67192;HTU21D;54120;53.504;49.426;2022-11-20T09:35:13;0.99;110.78
67192;HTU21D;54120;53.504;49.426;2022-11-20T09:37:40;0.99;110.78
67192;HTU21D;54120;53.504;49.426;2022-11-20T09:40:06;1.11;110.78
67192;HTU21D;54120;53.504;49.426;2022-11-20T09:50:31;1.13;110.09
67192;HTU21D;54120;53.504;49.426;2022-11-20T09:55:27;1.07;109.31
67192;HTU21D;54120;53.504;49.426;2022-11-20T09:57:53;1.13;109.45
67192;HTU21D;54120;53.504;49.426;2022-11-20T10:00:19;1.24;109.62
67192;HTU21D;54120;53.504;49.426;2022-11-20T10:05:17;1.24;109.60
67192;HTU21D;54120;53.504;49.426;2022-11-20T10:07:54;1.12;109.46
67192;HTU21D;54120;53.504;49.426;2022-11-20T10:10:24;1.05;109.45
67192;HTU21D;54120;53.504;49.426;2022-11-20T10:25:15;1.05;109.55
67192;HTU21D;54120;53.504;49.426;2022-11-20T10:32:39;1.14;109.62
67192;HTU21D;54120;53.504;49.426;2022-11-20T10:37:58;1.19;109.56
67192;HTU21D;54120;53.504;49.426;2022-11-20T10:40:27;1.18;109.50
67192;HTU21D;54120;53.504;49.426;2022-11-20T10:43:36;1.16;109.44
67192;HTU21D;54120;53.504;49.426;2022-11-20T10:45:53;1.09;109.35
67192;HTU21D;54120;53.504;49.426;2022-11-20T10:48:22;1.08;109.14
67192;HTU21D;54120;53.504;49.426;2022-11-20T10:50:59;1.10;109.21
67192;HTU21D;54120;53.504;49.426;2022-11-20T10:59:00;1.06;109.34
67192;HTU21D;54120;53.504;49.426;2022-11-20T11:01:29;1.01;109.40
67192;HTU21D;54120;53.504;49.426;2022-11-20T11:03:55;0.94;109.38
67192;HTU21D;54120;53.504;49.426;2022-11-20T11:08:49;0.84;109.50
67192;HTU21D;54120;53.504;49.426;2022-11-20T11:11:26;0.88;109.65
67192;HTU21D;54120;53.504;49.426;2022-11-20T11:13:53;0.94;109.82
67192;HTU21D;54120;53.504;49.426;2022-11-20T11:16:29;0.91;109.89
67192;HTU21D;54120;53.504;49.426;2022-11-20T11:21:30;0.78;109.84
67192;HTU21D;54120;53.504;49.426;2022-11-20T11:23:59;0.68;109.78
67192;HTU21D;54120;53.504;49.426;2022-11-20T11:26:26;0.64;109.74
67192;HTU21D;54120;53.504;49.426;2022-11-20T11:28:55;0.57;109.78
67192;HTU21D;54120;53.504;49.426;2022-11-20T11:31:28;0.57;109.85
67192;HTU21D;54120;53.504;49.426;2022-11-20T11:34:07;0.55;109.88
67192;HTU21D;54120;53.504;49.426;2022-11-20T11:36:34;0.51;109.91
67192;HTU21D;54120;53.504;49.426;2022-11-20T11:39:00;0.53;109.94
67192;HTU21D;54120;53.504;49.426;2022-11-20T11:41:28;0.49;109.93
67192;HTU21D;54120;53.504;49.426;2022-11-20T11:44:01;0.49;109.96
67192;HTU21D;54120;53.504;49.426;2022-11-20T11:46:53;0.52;110.00
67192;HTU21D;54120;53.504;49.426;2022-11-20T11:49:20;0.54;110.07
67192;HTU21D;54120;53.504;49.426;2022-11-20T11:52:07;0.53;110.10
67192;HTU21D;54120;53.504;49.426;2022-11-20T11:54:53;0.53;110.18
67192;HTU21D;54120;53.504;49.426;2022-11-20T12:00:09;0.43;110.19
67192;HTU21D;54120;53.504;49.426;2022-11-20T12:07:42;0.28;110.29
67192;HTU21D;54120;53.504;49.426;2022-11-20T12:10:53;0.25;110.35
67192;HTU21D;54120;53.504;49.426;2022-11-20T12:13:14;0.24;110.40
67192;HTU21D;54120;53.504;49.426;2022-11-20T12:15:43;0.25;110.49
67192;HTU21D;54120;53.504;49.426;2022-11-20T12:18:13;0.21;110.51
67192;HTU21D;54120;53.504;49.426;2022-11-20T12:20:41;0.22;110.55
67192;HTU21D;54120;53.504;49.426;2022-11-20T12:23:22;0.19;110.60
67192;HTU21D;54120;53.504;49.426;2022-11-20T12:25:53;0.18;110.64
67192;HTU21D;54120;53.504;49.426;2022-11-20T12:29:22;0.16;110.66
67192;HTU21D;54120;53.504;49.426;2022-11-20T12:31:26;0.12;110.68
67192;HTU21D;54120;53.504;49.426;2022-11-20T12:34:03;0.13;110.74
67192;HTU21D;54120;53.504;49.426;2022-11-20T12:39:24;0.15;110.79
67192;HTU21D;54120;53.504;49.426;2022-11-20T12:42:08;0.17;110.82
67192;HTU21D;54120;53.504;49.426;2022-11-20T12:52:48;0.34;110.94
67192;HTU21D;54120;53.504;49.426;2022-11-20T12:55:20;0.36;110.96
67192;HTU21D;54120;53.504;49.426;2022-11-20T13:00:20;0.34;110.97
67192;HTU21D;54120;53.504;49.426;2022-11-20T13:05:29;0.31;110.99
67192;HTU21D;54120;53.504;49.426;2022-11-20T13:07:57;0.31;110.97
67192;HTU21D;54120;53.504;49.426;2022-11-20T13:10:26;0.30;110.94
67192;HTU21D;54120;53.504;49.426;2022-11-20T13:13:01;0.33;110.87
67192;HTU21D;54120;53.504;49.426;2022-11-20T13:18:11;0.35;110.81
67192;HTU21D;54120;53.504;49.426;2022-11-20T13:20:41;0.36;110.80
67192;HTU21D;54120;53.504;49.426;2022-11-20T13:23:07;0.34;110.78
67192;HTU21D;54120;53.504;49.426;2022-11-20T13:25:34;0.33;110.69
67192;HTU21D;54120;53.504;49.426;2022-11-20T13:30:34;0.25;110.58
67192;HTU21D;54120;53.504;49.426;2022-11-20T13:33:03;0.28;110.61
67192;HTU21D;54120;53.504;49.426;2022-11-20T13:35:32;0.34;110.62
67192;HTU21D;54120;53.504;49.426;2022-11-20T13:38:01;0.36;110.60
67192;HTU21D;54120;53.504;49.426;2022-11-20T13:40:27;0.37;110.65
67192;HTU21D;54120;53.504;49.426;2022-11-20T13:45:23;0.45;110.71
67192;HTU21D;54120;53.504;49.426;2022-11-20T13:47:50;0.50;110.73
67192;HTU21D;54120;53.504;49.426;2022-11-20T13:50:16;0.55;110.75
67192;HTU21D;54120;53.504;49.426;2022-11-20T14:00:16;0.62;110.80
67192;HTU21D;54120;53.504;49.426;2022-11-20T14:02:43;0.62;110.79
67192;HTU21D;54120;53.504;49.426;2022-11-20T14:05:27;0.63;110.80
67192;HTU21D;54120;53.504;49.426;2022-11-20T14:07:53;0.65;110.78
67192;HTU21D;54120;53.504;49.426;2022-11-20T14:10:28;0.66;110.78
67192;HTU21D;54120;53.504;49.426;2022-11-20T14:12:54;0.64;110.76
67192;HTU21D;54120;53.504;49.426;2022-11-20T14:15:28;0.60;110.75
67192;HTU21D;54120;53.504;49.426;2022-11-20T14:17:54;0.61;110.75
67192;HTU21D;54120;53.504;49.426;2022-11-20T14:20:19;0.60;110.66
67192;HTU21D;54120;53.504;49.426;2022-11-20T14:22:52;0.53;110.58
67192;HTU21D;54120;53.504;49.426;2022-11-20T14:27:48;0.40;110.09
67192;HTU21D;54120;53.504;49.426;2022-11-20T14:30:16;0.39;110.09
67192;HTU21D;54120;53.504;49.426;2022-11-20T14:32:42;0.37;110.06
67192;HTU21D;54120;53.504;49.426;2022-11-20T14:35:09;0.38;110.00
67192;HTU21D;54120;53.504;49.426;2022-11-20T14:37:38;0.38;110.00
67192;HTU21D;54120;53.504;49.426;2022-11-20T14:40:48;0.36;110.04
67192;HTU21D;54120;53.504;49.426;2022-11-20T14:42:55;0.34;110.04
67192;HTU21D;54120;53.504;49.426;2022-11-20T14:45:21;0.35;110.01
67192;HTU21D;54120;53.504;49.426;2022-11-20T14:47:48;0.34;110.08
67192;HTU21D;54120;53.504;49.426;2022-11-20T14:55:27;0.29;110.04
67192;HTU21D;54120;53.504;49.426;2022-11-20T14:57:57;0.25;110.08
67192;HTU21D;54120;53.504;49.426;2022-11-20T15:00:24;0.29;110.16
67192;HTU21D;54120;53.504;49.426;2022-11-20T15:02:50;0.28;110.13
67192;HTU21D;54120;53.504;49.426;2022-11-20T15:05:17;0.25;110.13
67192;HTU21D;54120;53.504;49.426;2022-11-20T15:07:45;0.29;110.15
67192;HTU21D;54120;53.504;49.426;2022-11-20T15:12:46;0.34;110.24
67192;HTU21D;54120;53.504;49.426;2022-11-20T15:15:14;0.33;110.25
67192;HTU21D;54120;53.504;49.426;2022-11-20T15:17:42;0.33;110.28
67192;HTU21D;54120;53.504;49.426;2022-11-20T15:20:10;0.33;110.29
67192;HTU21D;54120;53.504;49.426;2022-11-20T15:22:37;0.31;110.29
67192;HTU21D;54120;53.504;49.426;2022-11-20T15:25:08;0.29;110.29
67192;HTU21D;54120;53.504;49.426;2022-11-20T15:27:33;0.31;110.35
67192;HTU21D;54120;53.504;49.426;2022-11-20T15:29:59;0.29;110.38
67192;HTU21D;54120;53.504;49.426;2022-11-20T15:32:25;0.28;110.39
67192;HTU21D;54120;53.504;49.426;2022-11-20T15:34:51;0.27;110.42
67192;HTU21D;54120;53.504;49.426;2022-11-20T15:37:16;0.30;110.46
67192;HTU21D;54120;53.504;49.426;2022-11-20T15:39:42;0.28;110.47
67192;HTU21D;54120;53.504;49.426;2022-11-20T15:42:08;0.29;110.48
67192;HTU21D;54120;53.504;49.426;2022-11-20T15:44:34;0.31;110.51
67192;HTU21D;54120;53.504;49.426;2022-11-20T15:47:00;0.31;110.51
67192;HTU21D;54120;53.504;49.426;2022-11-20T15:49:26;0.30;110.54
67192;HTU21D;54120;53.504;49.426;2022-11-20T15:51:51;0.31;110.56
67192;HTU21D;54120;53.504;49.426;2022-11-20T15:54:19;0.30;110.58
67192;HTU21D;54120;53.504;49.426;2022-11-20T15:56:46;0.30;110.59
67192;HTU21D;54120;53.504;49.426;2022-11-20T15:59:12;0.30;110.62
67192;HTU21D;54120;53.504;49.426;2022-11-20T16:01:40;0.30;110.62
67192;HTU21D;54120;53.504;49.426;2022-11-20T16:04:10;0.27;110.60
67192;HTU21D;54120;53.504;49.426;2022-11-20T16:06:36;0.27;110.62
67192;HTU21D;54120;53.504;49.426;2022-11-20T16:09:02;0.25;110.62
67192;HTU21D;54120;53.504;49.426;2022-11-20T16:11:29;0.23;110.63
67192;HTU21D;54120;53.504;49.426;2022-11-20T16:13:55;0.24;110.68
67192;HTU21D;54120;53.504;49.426;2022-11-20T16:16:39;0.28;110.74
67192;HTU21D;54120;53.504;49.426;2022-11-20T16:19:16;0.31;110.78
67192;HTU21D;54120;53.504;49.426;2022-11-20T16:21:42;0.29;110.81
67192;HTU21D;54120;53.504;49.426;2022-11-20T16:24:10;0.31;110.84
67192;HTU21D;54120;53.504;49.426;2022-11-20T16:26:36;0.28;110.87
67192;HTU21D;54120;53.504;49.426;2022-11-20T16:29:03;0.27;110.88
67192;HTU21D;54120;53.504;49.426;2022-11-20T16:31:29;0.28;110.92
67192;HTU21D;54120;53.504;49.426;2022-11-20T16:33:56;0.29;110.94
67192;HTU21D;54120;53.504;49.426;2022-11-20T16:36:23;0.29;110.97